createdAt,value
2017-02-17T00:00:12.602Z,99.41
2017-02-17T00:00:27.192Z,98.63
2017-02-17T00:00:42.299Z,98.15
2017-02-17T00:00:56.957Z,97.86
2017-02-17T00:01:11.505Z,98.15
2017-02-17T00:01:26.093Z,98.15
2017-02-17T00:01:40.632Z,98.05
2017-02-17T00:01:55.274Z,98.44
2017-02-17T00:02:09.857Z,97.76
2017-02-17T00:02:24.464Z,98.25
2017-02-17T00:02:39.094Z,97.91
2017-02-17T00:02:53.706Z,97.33
2017-02-17T00:03:08.559Z,97.28
2017-02-17T00:03:23.148Z,97.03
2017-02-17T00:03:37.772Z,97.52
2017-02-17T00:03:52.390Z,97.18
2017-02-17T00:04:07.009Z,97.33
2017-02-17T00:04:21.561Z,97.71
2017-02-17T00:04:36.155Z,97.71
2017-02-17T00:04:50.766Z,97.71
2017-02-17T00:05:05.366Z,97.67
2017-02-17T00:05:19.928Z,97.18
2017-02-17T00:05:34.581Z,97.23
2017-02-17T00:05:49.163Z,97.18
2017-02-17T00:06:03.809Z,97.28
2017-02-17T00:06:18.398Z,97.08
2017-02-17T00:06:32.994Z,97.38
2017-02-17T00:06:47.612Z,97.86
2017-02-17T00:07:02.230Z,97.33
2017-02-17T00:07:16.815Z,97.47
2017-02-17T00:07:31.395Z,97.38
2017-02-17T00:07:45.991Z,97.28
2017-02-17T00:08:00.613Z,97.28
2017-02-17T00:08:15.186Z,97.67
2017-02-17T00:08:29.742Z,97.47
2017-02-17T00:08:44.357Z,97.38
2017-02-17T00:08:58.944Z,97.18
2017-02-17T00:09:13.562Z,97.33
2017-02-17T00:09:28.128Z,97.18
2017-02-17T00:09:42.699Z,97.18
2017-02-17T00:09:57.360Z,97.57
2017-02-17T00:10:11.968Z,97.57
2017-02-17T00:10:26.556Z,97.47
2017-02-17T00:10:41.123Z,97.38
2017-02-17T00:10:55.725Z,97.28
2017-02-17T00:11:10.273Z,97.38
2017-02-17T00:11:26.147Z,97.76
2017-02-17T00:11:40.828Z,96.99
2017-02-17T00:11:55.430Z,97.28
2017-02-17T00:12:10.032Z,97.18
2017-02-17T00:12:24.635Z,97.67
2017-02-17T00:12:39.216Z,97.38
2017-02-17T00:12:53.847Z,97.47
2017-02-17T00:13:08.462Z,97.38
2017-02-17T00:13:23.070Z,97.67
2017-02-17T00:13:37.624Z,97.67
2017-02-17T00:13:52.217Z,96.99
2017-02-17T00:14:06.776Z,97.38
2017-02-17T00:14:21.342Z,97.18
2017-02-17T00:14:35.918Z,97.18
2017-02-17T00:14:50.458Z,97.38
2017-02-17T00:15:05.049Z,97.08
2017-02-17T00:15:19.701Z,97.38
2017-02-17T00:15:34.344Z,97.28
2017-02-17T00:15:48.958Z,97.57
2017-02-17T00:16:03.518Z,97.67
2017-02-17T00:16:18.051Z,97.86
2017-02-17T00:16:32.676Z,97.57
2017-02-17T00:16:47.250Z,97.38
2017-02-17T00:17:01.883Z,97.18
2017-02-17T00:17:16.539Z,97.38
2017-02-17T00:17:31.138Z,97.28
2017-02-17T00:17:45.713Z,97.76
2017-02-17T00:18:00.264Z,97.38
2017-02-17T00:18:15.081Z,97.47
2017-02-17T00:18:29.630Z,97.57
2017-02-17T00:18:44.243Z,97.18
2017-02-17T00:18:58.843Z,96.89
2017-02-17T00:19:13.419Z,96.99
2017-02-17T00:19:27.994Z,96.99
2017-02-17T00:19:42.568Z,96.7
2017-02-17T00:19:57.202Z,97.08
2017-02-17T00:20:11.746Z,97.38
2017-02-17T00:20:26.359Z,97.28
2017-02-17T00:20:40.959Z,97.18
2017-02-17T00:20:55.501Z,97.18
2017-02-17T00:21:10.102Z,97.18
2017-02-17T00:21:24.711Z,96.89
2017-02-17T00:21:39.332Z,96.8
2017-02-17T00:21:53.866Z,96.99
2017-02-17T00:22:08.451Z,97.08
2017-02-17T00:22:23.038Z,97.08
2017-02-17T00:22:37.703Z,97.38
2017-02-17T00:22:53.630Z,96.8
2017-02-17T00:23:08.193Z,96.8
2017-02-17T00:23:22.836Z,96.89
2017-02-17T00:23:37.417Z,97.28
2017-02-17T00:23:51.956Z,97.28
2017-02-17T00:24:06.576Z,97.08
2017-02-17T00:24:21.205Z,97.08
2017-02-17T00:24:35.825Z,96.99
2017-02-17T00:24:50.416Z,96.7
2017-02-17T00:25:05.007Z,97.18
2017-02-17T00:25:19.585Z,97.08
2017-02-17T00:25:34.191Z,97.08
2017-02-17T00:25:48.820Z,97.18
2017-02-17T00:26:03.380Z,97.18
2017-02-17T00:26:18.042Z,97.08
2017-02-17T00:26:32.654Z,97.13
2017-02-17T00:26:47.204Z,96.94
2017-02-17T00:27:01.831Z,96.94
2017-02-17T00:27:16.439Z,97.08
2017-02-17T00:27:30.971Z,97.04
2017-02-17T00:27:45.614Z,97.13
2017-02-17T00:28:00.144Z,96.84
2017-02-17T00:28:14.738Z,97.42
2017-02-17T00:28:29.295Z,97.33
2017-02-17T00:28:43.835Z,97.33
2017-02-17T00:28:58.492Z,97.42
2017-02-17T00:29:13.123Z,97.52
2017-02-17T00:29:27.724Z,97.42
2017-02-17T00:29:42.322Z,97.42
2017-02-17T00:29:56.894Z,97.62
2017-02-17T00:30:11.420Z,97.33
2017-02-17T00:30:26.002Z,97.33
2017-02-17T00:30:40.659Z,97.42
2017-02-17T00:30:55.276Z,97.04
2017-02-17T00:31:09.853Z,97.33
2017-02-17T00:31:24.407Z,97.42
2017-02-17T00:31:38.965Z,97.23
2017-02-17T00:31:53.528Z,96.94
2017-02-17T00:32:08.073Z,97.23
2017-02-17T00:32:22.650Z,97.13
2017-02-17T00:32:37.225Z,97.33
2017-02-17T00:32:51.790Z,97.33
2017-02-17T00:33:06.373Z,97.52
2017-02-17T00:33:21.143Z,96.65
2017-02-17T00:33:35.656Z,96.75
2017-02-17T00:33:50.259Z,96.84
2017-02-17T00:34:04.835Z,97.04
2017-02-17T00:34:19.455Z,96.75
2017-02-17T00:34:34.066Z,96.84
2017-02-17T00:34:48.734Z,96.65
2017-02-17T00:35:03.257Z,97.04
2017-02-17T00:35:17.853Z,97.04
2017-02-17T00:35:32.481Z,97.13
2017-02-17T00:35:47.042Z,97.04
2017-02-17T00:36:01.621Z,96.94
2017-02-17T00:36:16.212Z,97.04
2017-02-17T00:36:30.804Z,97.04
2017-02-17T00:36:45.354Z,97.33
2017-02-17T00:36:59.974Z,97.33
2017-02-17T00:37:14.564Z,97.23
2017-02-17T00:37:29.111Z,97.33
2017-02-17T00:37:43.680Z,97.13
2017-02-17T00:37:58.241Z,97.13
2017-02-17T00:38:12.824Z,97.04
2017-02-17T00:38:27.343Z,97.04
2017-02-17T00:38:41.915Z,96.94
2017-02-17T00:38:56.486Z,97.08
2017-02-17T00:39:11.102Z,96.99
2017-02-17T00:39:25.746Z,96.8
2017-02-17T00:39:40.315Z,96.6
2017-02-17T00:39:54.883Z,97.08
2017-02-17T00:40:09.442Z,96.7
2017-02-17T00:40:24.010Z,96.5
2017-02-17T00:40:38.627Z,96.5
2017-02-17T00:40:53.237Z,96.31
2017-02-17T00:41:07.816Z,96.31
2017-02-17T00:41:22.407Z,96.26
2017-02-17T00:41:37.031Z,95.87
2017-02-17T00:41:51.643Z,95.49
2017-02-17T00:42:06.221Z,95.1
2017-02-17T00:42:20.771Z,94.62
2017-02-17T00:42:35.382Z,94.9
2017-02-17T00:42:49.979Z,94.71
2017-02-17T00:43:04.610Z,94.71
2017-02-17T00:43:19.154Z,94.71
2017-02-17T00:43:33.690Z,94.81
2017-02-17T00:43:48.262Z,94.81
2017-02-17T00:44:02.844Z,94.81
2017-02-17T00:44:17.422Z,94.81
2017-02-17T00:44:31.990Z,94.62
2017-02-17T00:44:46.577Z,94.81
2017-02-17T00:45:01.196Z,95
2017-02-17T00:45:15.822Z,95.49
2017-02-17T00:45:30.339Z,95.15
2017-02-17T00:45:44.964Z,95.34
2017-02-17T00:45:59.553Z,95.15
2017-02-17T00:46:14.160Z,94.76
2017-02-17T00:46:28.743Z,95.44
2017-02-17T00:46:43.319Z,95.34
2017-02-17T00:46:57.904Z,95.34
2017-02-17T00:47:12.515Z,95.54
2017-02-17T00:47:27.080Z,95.34
2017-02-17T00:47:41.660Z,95.73
2017-02-17T00:47:56.280Z,95.83
2017-02-17T00:48:10.844Z,95.73
2017-02-17T00:48:25.621Z,95.83
2017-02-17T00:48:40.195Z,95.49
2017-02-17T00:48:54.773Z,95.49
2017-02-17T00:49:09.372Z,95.49
2017-02-17T00:49:23.933Z,95.68
2017-02-17T00:49:38.484Z,95.34
2017-02-17T00:49:53.064Z,95.97
2017-02-17T00:50:07.752Z,95.87
2017-02-17T00:50:22.320Z,95.78
2017-02-17T00:50:36.951Z,95.2
2017-02-17T00:50:51.547Z,95.2
2017-02-17T00:51:06.172Z,95.44
2017-02-17T00:51:20.821Z,95.54
2017-02-17T00:51:35.366Z,95.34
2017-02-17T00:51:49.873Z,95.05
2017-02-17T00:52:04.506Z,95.34
2017-02-17T00:52:19.058Z,95.44
2017-02-17T00:52:33.589Z,95.73
2017-02-17T00:52:48.167Z,95.49
2017-02-17T00:53:04.351Z,95.64
2017-02-17T00:53:18.911Z,95.25
2017-02-17T00:53:33.555Z,95.73
2017-02-17T00:53:48.235Z,95.73
2017-02-17T00:54:02.872Z,95.83
2017-02-17T00:54:17.476Z,96.12
2017-02-17T00:54:32.028Z,96.17
2017-02-17T00:54:46.643Z,96.36
2017-02-17T00:55:01.249Z,96.17
2017-02-17T00:55:15.839Z,96.17
2017-02-17T00:55:30.443Z,95.87
2017-02-17T00:55:45.016Z,95.97
2017-02-17T00:55:59.642Z,95.87
2017-02-17T00:56:14.225Z,96.55
2017-02-17T00:56:28.797Z,96.75
2017-02-17T00:56:43.380Z,96.89
2017-02-17T00:56:58.002Z,97.42
2017-02-17T00:57:12.520Z,97.33
2017-02-17T00:57:27.022Z,97.52
2017-02-17T00:57:41.640Z,97.18
2017-02-17T00:57:56.308Z,97.28
2017-02-17T00:58:10.918Z,97.03
2017-02-17T00:58:25.461Z,97.47
2017-02-17T00:58:40.057Z,97.86
2017-02-17T00:58:54.655Z,97.86
2017-02-17T00:59:09.324Z,97.86
2017-02-17T00:59:23.913Z,98.05
2017-02-17T00:59:38.525Z,98.25
2017-02-17T00:59:53.142Z,98.15
2017-02-17T01:00:07.763Z,98.73
2017-02-17T01:00:22.313Z,98.44
2017-02-17T01:00:36.868Z,98.54
2017-02-17T01:00:51.436Z,98.83
2017-02-17T01:01:05.992Z,98.83
2017-02-17T01:01:20.548Z,98.63
2017-02-17T01:01:35.179Z,99.02
2017-02-17T01:01:49.814Z,99.21
2017-02-17T01:02:04.412Z,99.31
2017-02-17T01:02:19.030Z,99.12
2017-02-17T01:02:33.621Z,99.6
2017-02-17T01:02:48.181Z,99.51
2017-02-17T01:03:02.814Z,99.21
2017-02-17T01:03:17.409Z,99.31
2017-02-17T01:03:32.020Z,98.93
2017-02-17T01:03:47.091Z,99.12
2017-02-17T01:04:01.684Z,98.63
2017-02-17T01:04:16.234Z,98.88
2017-02-17T01:04:30.799Z,98.78
2017-02-17T01:04:45.389Z,98.68
2017-02-17T01:04:59.949Z,99.36
2017-02-17T01:05:14.571Z,99.46
2017-02-17T01:05:29.162Z,99.94
2017-02-17T01:05:43.751Z,99.99
2017-02-17T01:05:58.329Z,99.99
2017-02-17T01:06:12.871Z,99.99
2017-02-17T01:06:27.453Z,99.99
2017-02-17T01:06:42.101Z,99.99
2017-02-17T01:06:56.738Z,99.99
2017-02-17T01:07:11.276Z,99.99
2017-02-17T01:07:25.913Z,99.99
2017-02-17T01:07:40.449Z,99.99
2017-02-17T01:07:55.081Z,99.99
2017-02-17T01:08:09.613Z,99.99
2017-02-17T01:08:24.234Z,99.99
2017-02-17T01:08:38.899Z,99.99
2017-02-17T01:08:53.456Z,99.36
2017-02-17T01:09:08.083Z,99.46
2017-02-17T01:09:22.616Z,99.94
2017-02-17T01:09:37.268Z,99.99
2017-02-17T01:09:51.827Z,99.99
2017-02-17T01:10:06.413Z,99.99
2017-02-17T01:10:20.968Z,99.99
2017-02-17T01:10:35.517Z,99.99
2017-02-17T01:10:50.054Z,99.99
2017-02-17T01:11:04.615Z,99.99
2017-02-17T01:11:19.173Z,99.99
2017-02-17T01:11:33.720Z,99.99
2017-02-17T01:11:48.207Z,99.99
2017-02-17T01:12:02.794Z,99.99
2017-02-17T01:12:17.313Z,99.99
2017-02-17T01:12:31.942Z,99.99
2017-02-17T01:12:46.508Z,99.99
2017-02-17T01:13:01.092Z,99.99
2017-02-17T01:13:15.643Z,99.99
2017-02-17T01:13:30.240Z,99.99
2017-02-17T01:13:44.776Z,99.99
2017-02-17T01:13:59.388Z,99.99
2017-02-17T01:14:13.932Z,99.99
2017-02-17T01:14:28.439Z,99.99
2017-02-17T01:14:43.000Z,99.99
2017-02-17T01:14:57.585Z,99.99
2017-02-17T01:15:12.159Z,99.99
2017-02-17T01:15:26.742Z,99.99
2017-02-17T01:15:41.342Z,99.99
2017-02-17T01:15:55.909Z,99.99
2017-02-17T01:16:10.495Z,99.99
2017-02-17T01:16:25.059Z,99.99
2017-02-17T01:16:39.657Z,99.99
2017-02-17T01:16:54.269Z,99.99
2017-02-17T01:17:08.848Z,99.99
2017-02-17T01:17:23.395Z,99.99
2017-02-17T01:17:37.951Z,99.99
2017-02-17T01:17:52.515Z,99.99
2017-02-17T01:18:07.148Z,99.99
2017-02-17T01:18:21.700Z,99.99
2017-02-17T01:18:36.332Z,99.99
2017-02-17T01:18:51.142Z,99.99
2017-02-17T01:19:05.744Z,99.99
2017-02-17T01:19:20.347Z,99.99
2017-02-17T01:19:34.919Z,99.99
2017-02-17T01:19:49.443Z,99.99
2017-02-17T01:20:04.042Z,99.99
2017-02-17T01:20:18.579Z,99.99
2017-02-17T01:20:33.166Z,99.99
2017-02-17T01:20:47.772Z,99.99
2017-02-17T01:21:02.246Z,99.99
2017-02-17T01:21:16.800Z,99.99
2017-02-17T01:21:31.444Z,99.99
2017-02-17T01:21:46.015Z,99.99
2017-02-17T01:22:00.632Z,99.99
2017-02-17T01:22:15.171Z,99.99
2017-02-17T01:22:29.788Z,99.99
2017-02-17T01:22:44.346Z,99.99
2017-02-17T01:22:59.009Z,99.99
2017-02-17T01:23:13.530Z,99.99
2017-02-17T01:23:28.038Z,99.99
2017-02-17T01:23:42.598Z,99.99
2017-02-17T01:23:57.162Z,99.99
2017-02-17T01:24:11.710Z,99.99
2017-02-17T01:24:26.289Z,99.99
2017-02-17T01:24:40.833Z,99.99
2017-02-17T01:24:55.459Z,99.99
2017-02-17T01:25:10.024Z,99.99
2017-02-17T01:25:24.621Z,99.99
2017-02-17T01:25:39.169Z,99.99
2017-02-17T01:25:53.718Z,99.99
2017-02-17T01:26:08.294Z,99.99
2017-02-17T01:26:22.893Z,99.99
2017-02-17T01:26:37.468Z,99.99
2017-02-17T01:26:52.037Z,99.99
2017-02-17T01:27:06.564Z,99.99
2017-02-17T01:27:21.038Z,99.99
2017-02-17T01:27:35.609Z,99.99
2017-02-17T01:27:50.194Z,99.99
2017-02-17T01:28:04.784Z,99.99
2017-02-17T01:28:19.382Z,99.99
2017-02-17T01:28:33.987Z,99.99
2017-02-17T01:28:48.557Z,99.99
2017-02-17T01:29:03.038Z,99.99
2017-02-17T01:29:17.792Z,99.99
2017-02-17T01:29:32.346Z,99.99
2017-02-17T01:29:46.857Z,99.99
2017-02-17T01:30:01.394Z,99.99
2017-02-17T01:30:15.987Z,99.99
2017-02-17T01:30:30.522Z,99.99
2017-02-17T01:30:45.105Z,99.99
2017-02-17T01:30:59.757Z,99.99
2017-02-17T01:31:14.316Z,99.99
2017-02-17T01:31:28.899Z,99.99
2017-02-17T01:31:43.519Z,99.99
2017-02-17T01:31:58.122Z,99.99
2017-02-17T01:32:12.665Z,99.99
2017-02-17T01:32:27.310Z,99.99
2017-02-17T01:32:41.909Z,99.99
2017-02-17T01:32:56.517Z,99.99
2017-02-17T01:33:11.105Z,99.99
2017-02-17T01:33:25.636Z,99.99
2017-02-17T01:33:40.121Z,99.99
2017-02-17T01:33:54.813Z,99.99
2017-02-17T01:34:09.357Z,99.99
2017-02-17T01:34:23.873Z,99.99
2017-02-17T01:34:38.512Z,99.99
2017-02-17T01:34:53.105Z,99.99
2017-02-17T01:35:07.700Z,99.99
2017-02-17T01:35:22.289Z,99.99
2017-02-17T01:35:36.882Z,99.99
2017-02-17T01:35:51.460Z,99.99
2017-02-17T01:36:06.066Z,99.99
2017-02-17T01:36:20.662Z,99.99
2017-02-17T01:36:35.213Z,99.99
2017-02-17T01:36:49.702Z,99.99
2017-02-17T01:37:04.236Z,99.99
2017-02-17T01:37:18.811Z,99.99
2017-02-17T01:37:33.381Z,99.99
2017-02-17T01:37:47.987Z,99.99
2017-02-17T01:38:02.549Z,99.99
2017-02-17T01:38:17.129Z,99.99
2017-02-17T01:38:31.693Z,99.99
2017-02-17T01:38:46.288Z,99.99
2017-02-17T01:39:00.937Z,99.99
2017-02-17T01:39:15.535Z,99.99
2017-02-17T01:39:30.061Z,99.99
2017-02-17T01:39:44.611Z,99.99
2017-02-17T01:39:59.198Z,99.99
2017-02-17T01:40:13.806Z,99.99
2017-02-17T01:40:28.433Z,99.99
2017-02-17T01:40:43.077Z,99.99
2017-02-17T01:40:57.634Z,99.99
2017-02-17T01:41:12.177Z,99.99
2017-02-17T01:41:26.794Z,99.99
2017-02-17T01:41:41.365Z,99.99
2017-02-17T01:41:55.943Z,99.99
2017-02-17T01:42:10.533Z,99.99
2017-02-17T01:42:25.101Z,99.99
2017-02-17T01:42:39.696Z,99.99
2017-02-17T01:42:54.311Z,99.99
2017-02-17T01:43:08.853Z,99.99
2017-02-17T01:43:23.425Z,99.99
2017-02-17T01:43:38.049Z,99.99
2017-02-17T01:43:52.642Z,99.99
2017-02-17T01:44:07.220Z,99.99
2017-02-17T01:44:21.787Z,99.99
2017-02-17T01:44:36.425Z,99.99
2017-02-17T01:44:50.981Z,99.99
2017-02-17T01:45:05.499Z,99.99
2017-02-17T01:45:20.087Z,99.99
2017-02-17T01:45:34.626Z,99.99
2017-02-17T01:45:49.231Z,99.99
2017-02-17T01:46:03.853Z,99.99
2017-02-17T01:46:18.449Z,99.99
2017-02-17T01:46:33.005Z,99.99
2017-02-17T01:46:47.594Z,99.99
2017-02-17T01:47:02.172Z,99.99
2017-02-17T01:47:16.683Z,99.99
2017-02-17T01:47:31.190Z,99.99
2017-02-17T01:47:45.746Z,99.99
2017-02-17T01:48:00.301Z,99.99
2017-02-17T01:48:14.862Z,99.99
2017-02-17T01:48:29.458Z,99.99
2017-02-17T01:48:44.286Z,99.99
2017-02-17T01:48:59.075Z,99.99
2017-02-17T01:49:13.588Z,99.99
2017-02-17T01:49:28.208Z,99.99
2017-02-17T01:49:42.783Z,99.99
2017-02-17T01:49:57.303Z,99.99
2017-02-17T01:50:11.888Z,99.99
2017-02-17T01:50:26.428Z,99.99
2017-02-17T01:50:40.987Z,99.99
2017-02-17T01:50:55.540Z,99.99
2017-02-17T01:51:10.102Z,99.99
2017-02-17T01:51:24.704Z,99.99
2017-02-17T01:51:39.275Z,99.99
2017-02-17T01:51:53.816Z,99.99
2017-02-17T01:52:08.336Z,99.99
2017-02-17T01:52:22.923Z,99.99
2017-02-17T01:52:37.479Z,99.99
2017-02-17T01:52:51.996Z,99.99
2017-02-17T01:53:06.544Z,99.99
2017-02-17T01:53:21.098Z,99.99
2017-02-17T01:53:35.665Z,99.99
2017-02-17T01:53:50.271Z,99.99
2017-02-17T01:54:04.813Z,99.99
2017-02-17T01:54:19.356Z,99.99
2017-02-17T01:54:33.921Z,99.99
2017-02-17T01:54:48.526Z,99.99
2017-02-17T01:55:03.098Z,99.99
2017-02-17T01:55:17.674Z,99.99
2017-02-17T01:55:32.206Z,99.99
2017-02-17T01:55:46.827Z,99.99
2017-02-17T01:56:01.453Z,99.99
2017-02-17T01:56:16.044Z,99.99
2017-02-17T01:56:30.649Z,99.99
2017-02-17T01:56:45.224Z,99.99
2017-02-17T01:56:59.961Z,99.99
2017-02-17T01:57:14.528Z,99.99
2017-02-17T01:57:29.040Z,99.99
2017-02-17T01:57:43.538Z,99.99
2017-02-17T01:57:58.097Z,99.99
2017-02-17T01:58:12.606Z,99.99
2017-02-17T01:58:27.166Z,99.99
2017-02-17T01:58:41.703Z,99.99
2017-02-17T01:58:56.266Z,99.99
2017-02-17T01:59:10.829Z,99.99
2017-02-17T01:59:25.423Z,99.99
2017-02-17T01:59:40.001Z,99.99
2017-02-17T01:59:54.670Z,99.99
2017-02-17T02:00:09.224Z,99.99
2017-02-17T02:00:23.776Z,99.99
2017-02-17T02:00:38.384Z,99.99
2017-02-17T02:00:52.913Z,99.99
2017-02-17T02:01:07.450Z,99.99
2017-02-17T02:01:22.011Z,99.99
2017-02-17T02:01:36.578Z,99.99
2017-02-17T02:01:51.139Z,99.99
2017-02-17T02:02:05.657Z,99.99
2017-02-17T02:02:20.225Z,99.99
2017-02-17T02:02:34.769Z,99.99
2017-02-17T02:02:49.328Z,99.99
2017-02-17T02:03:03.911Z,99.99
2017-02-17T02:03:18.464Z,99.99
2017-02-17T02:03:33.027Z,99.99
2017-02-17T02:03:47.626Z,99.99
2017-02-17T02:04:02.207Z,99.99
2017-02-17T02:04:16.987Z,99.99
2017-02-17T02:04:31.544Z,99.99
2017-02-17T02:04:46.093Z,99.99
2017-02-17T02:05:00.567Z,99.99
2017-02-17T02:05:15.128Z,99.99
2017-02-17T02:05:29.646Z,99.99
2017-02-17T02:05:44.216Z,99.99
2017-02-17T02:05:58.785Z,99.99
2017-02-17T02:06:13.354Z,99.99
2017-02-17T02:06:27.961Z,99.99
2017-02-17T02:06:42.588Z,99.99
2017-02-17T02:06:57.235Z,99.99
2017-02-17T02:07:11.778Z,99.99
2017-02-17T02:07:26.317Z,99.99
2017-02-17T02:07:40.905Z,99.99
2017-02-17T02:07:55.437Z,99.99
2017-02-17T02:08:10.232Z,99.99
2017-02-17T02:08:24.771Z,99.99
2017-02-17T02:08:39.386Z,99.99
2017-02-17T02:08:53.944Z,99.99
2017-02-17T02:09:08.551Z,99.99
2017-02-17T02:09:23.137Z,99.99
2017-02-17T02:09:37.699Z,99.99
2017-02-17T02:09:52.296Z,99.99
2017-02-17T02:10:06.827Z,99.99
2017-02-17T02:10:21.380Z,99.99
2017-02-17T02:10:35.971Z,99.99
2017-02-17T02:10:50.617Z,99.99
2017-02-17T02:11:05.168Z,99.99
2017-02-17T02:11:19.702Z,99.99
2017-02-17T02:11:34.220Z,99.99
2017-02-17T02:11:48.741Z,99.99
2017-02-17T02:12:03.252Z,99.99
2017-02-17T02:12:17.863Z,99.99
2017-02-17T02:12:32.394Z,99.99
2017-02-17T02:12:46.916Z,99.99
2017-02-17T02:13:01.422Z,99.99
2017-02-17T02:13:15.977Z,99.99
2017-02-17T02:13:30.567Z,99.99
2017-02-17T02:13:45.150Z,99.99
2017-02-17T02:13:59.721Z,99.99
2017-02-17T02:14:14.292Z,99.99
2017-02-17T02:14:28.855Z,99.99
2017-02-17T02:14:43.379Z,99.99
2017-02-17T02:14:57.887Z,99.99
2017-02-17T02:15:12.442Z,99.99
2017-02-17T02:15:27.047Z,99.99
2017-02-17T02:15:41.608Z,99.99
2017-02-17T02:15:56.238Z,99.99
2017-02-17T02:16:10.816Z,99.99
2017-02-17T02:16:25.430Z,99.99
2017-02-17T02:16:40.039Z,99.99
2017-02-17T02:16:54.629Z,99.99
2017-02-17T02:17:09.194Z,99.99
2017-02-17T02:17:23.732Z,99.99
2017-02-17T02:17:38.337Z,99.99
2017-02-17T02:17:52.888Z,99.99
2017-02-17T02:18:07.459Z,99.99
2017-02-17T02:18:22.038Z,99.99
2017-02-17T02:18:36.617Z,99.99
2017-02-17T02:18:51.148Z,99.99
2017-02-17T02:19:05.688Z,99.99
2017-02-17T02:19:20.478Z,99.99
2017-02-17T02:19:35.054Z,99.99
2017-02-17T02:19:49.583Z,99.99
2017-02-17T02:20:04.170Z,99.99
2017-02-17T02:20:18.750Z,99.99
2017-02-17T02:20:33.264Z,99.99
2017-02-17T02:20:47.842Z,99.99
2017-02-17T02:21:02.448Z,99.99
2017-02-17T02:21:17.041Z,99.99
2017-02-17T02:21:31.585Z,99.99
2017-02-17T02:21:46.445Z,99.99
2017-02-17T02:22:01.050Z,99.99
2017-02-17T02:22:15.634Z,99.99
2017-02-17T02:22:30.179Z,99.99
2017-02-17T02:22:44.756Z,99.99
2017-02-17T02:22:59.347Z,99.99
2017-02-17T02:23:13.903Z,99.99
2017-02-17T02:23:28.536Z,99.99
2017-02-17T02:23:43.102Z,99.99
2017-02-17T02:23:57.711Z,99.99
2017-02-17T02:24:12.269Z,99.99
2017-02-17T02:24:26.917Z,99.99
2017-02-17T02:24:41.545Z,99.99
2017-02-17T02:24:56.176Z,99.99
2017-02-17T02:25:10.768Z,99.99
2017-02-17T02:25:25.334Z,99.99
2017-02-17T02:25:39.933Z,99.99
2017-02-17T02:25:54.464Z,99.99
2017-02-17T02:26:09.031Z,99.99
2017-02-17T02:26:23.637Z,99.99
2017-02-17T02:26:38.228Z,99.99
2017-02-17T02:26:52.815Z,99.99
2017-02-17T02:27:07.323Z,99.99
2017-02-17T02:27:21.904Z,99.99
2017-02-17T02:27:36.477Z,99.99
2017-02-17T02:27:51.091Z,99.99
2017-02-17T02:28:05.650Z,99.99
2017-02-17T02:28:20.251Z,99.99
2017-02-17T02:28:34.856Z,99.99
2017-02-17T02:28:49.408Z,99.99
2017-02-17T02:29:03.977Z,99.99
2017-02-17T02:29:18.487Z,99.99
2017-02-17T02:29:33.023Z,99.99
2017-02-17T02:29:47.803Z,99.99
2017-02-17T02:30:02.333Z,99.99
2017-02-17T02:30:16.932Z,99.99
2017-02-17T02:30:31.453Z,99.99
2017-02-17T02:30:46.024Z,99.99
2017-02-17T02:31:00.587Z,99.99
2017-02-17T02:31:15.185Z,99.99
2017-02-17T02:31:29.707Z,99.99
2017-02-17T02:31:44.288Z,99.99
2017-02-17T02:31:58.874Z,99.99
2017-02-17T02:32:13.458Z,99.99
2017-02-17T02:32:28.013Z,99.99
2017-02-17T02:32:42.532Z,99.99
2017-02-17T02:32:57.037Z,99.99
2017-02-17T02:33:11.570Z,99.99
2017-02-17T02:33:26.212Z,99.99
2017-02-17T02:33:40.734Z,99.99
2017-02-17T02:33:55.219Z,99.99
2017-02-17T02:34:09.958Z,99.99
2017-02-17T02:34:24.726Z,99.99
2017-02-17T02:34:39.330Z,99.99
2017-02-17T02:34:53.859Z,99.99
2017-02-17T02:35:08.455Z,99.99
2017-02-17T02:35:23.039Z,99.99
2017-02-17T02:35:37.588Z,99.99
2017-02-17T02:35:52.162Z,99.99
2017-02-17T02:36:06.742Z,99.99
2017-02-17T02:36:21.268Z,99.99
2017-02-17T02:36:35.823Z,99.99
2017-02-17T02:36:50.413Z,99.99
2017-02-17T02:37:05.012Z,99.99
2017-02-17T02:37:19.605Z,99.99
2017-02-17T02:37:34.191Z,99.99
2017-02-17T02:37:48.757Z,99.99
2017-02-17T02:38:03.314Z,99.99
2017-02-17T02:38:17.861Z,99.99
2017-02-17T02:38:32.415Z,99.99
2017-02-17T02:38:46.950Z,99.99
2017-02-17T02:39:01.544Z,99.99
2017-02-17T02:39:16.097Z,99.99
2017-02-17T02:39:30.688Z,99.99
2017-02-17T02:39:45.292Z,99.99
2017-02-17T02:39:59.803Z,99.99
2017-02-17T02:40:14.361Z,99.99
2017-02-17T02:40:28.970Z,99.99
2017-02-17T02:40:43.533Z,99.99
2017-02-17T02:40:58.171Z,99.99
2017-02-17T02:41:12.691Z,99.99
2017-02-17T02:41:27.228Z,99.99
2017-02-17T02:41:41.763Z,99.99
2017-02-17T02:41:56.342Z,99.99
2017-02-17T02:42:10.945Z,99.99
2017-02-17T02:42:25.538Z,99.99
2017-02-17T02:42:40.142Z,99.99
2017-02-17T02:42:54.740Z,99.99
2017-02-17T02:43:09.242Z,99.99
2017-02-17T02:43:23.770Z,99.99
2017-02-17T02:43:38.302Z,99.99
2017-02-17T02:43:52.886Z,99.99
2017-02-17T02:44:07.506Z,99.99
2017-02-17T02:44:22.099Z,99.99
2017-02-17T02:44:36.719Z,99.99
2017-02-17T02:44:51.319Z,99.99
2017-02-17T02:45:05.947Z,99.99
2017-02-17T02:45:20.496Z,99.99
2017-02-17T02:45:35.104Z,99.99
2017-02-17T02:45:49.693Z,99.99
2017-02-17T02:46:04.192Z,99.99
2017-02-17T02:46:18.770Z,99.99
2017-02-17T02:46:33.397Z,99.99
2017-02-17T02:46:47.985Z,99.99
2017-02-17T02:47:02.604Z,99.99
2017-02-17T02:47:17.109Z,99.99
2017-02-17T02:47:31.639Z,99.99
2017-02-17T02:47:46.243Z,99.99
2017-02-17T02:48:00.821Z,99.99
2017-02-17T02:48:15.401Z,99.99
2017-02-17T02:48:30.018Z,99.99
2017-02-17T02:48:44.570Z,99.99
2017-02-17T02:48:59.131Z,99.99
2017-02-17T02:49:13.722Z,99.99
2017-02-17T02:49:28.491Z,99.99
2017-02-17T02:49:43.053Z,99.99
2017-02-17T02:49:57.595Z,99.99
2017-02-17T02:50:12.161Z,99.99
2017-02-17T02:50:26.703Z,99.99
2017-02-17T02:50:41.281Z,99.99
2017-02-17T02:50:55.862Z,99.99
2017-02-17T02:51:10.398Z,99.99
2017-02-17T02:51:24.996Z,99.99
2017-02-17T02:51:39.527Z,99.99
2017-02-17T02:51:54.061Z,99.99
2017-02-17T02:52:08.616Z,99.99
2017-02-17T02:52:23.137Z,99.99
2017-02-17T02:52:37.664Z,99.99
2017-02-17T02:52:52.195Z,99.99
2017-02-17T02:53:06.722Z,99.99
2017-02-17T02:53:21.302Z,99.99
2017-02-17T02:53:35.865Z,99.99
2017-02-17T02:53:50.473Z,99.99
2017-02-17T02:54:05.025Z,99.99
2017-02-17T02:54:19.589Z,99.99
2017-02-17T02:54:34.132Z,99.99
2017-02-17T02:54:48.753Z,99.99
2017-02-17T02:55:03.354Z,99.99
2017-02-17T02:55:17.905Z,99.99
2017-02-17T02:55:32.452Z,99.99
2017-02-17T02:55:46.975Z,99.99
2017-02-17T02:56:01.477Z,99.99
2017-02-17T02:56:16.029Z,99.99
2017-02-17T02:56:30.585Z,99.99
2017-02-17T02:56:45.131Z,99.99
2017-02-17T02:56:59.661Z,99.99
2017-02-17T02:57:14.179Z,99.99
2017-02-17T02:57:28.717Z,99.99
2017-02-17T02:57:43.276Z,99.99
2017-02-17T02:57:57.894Z,99.99
2017-02-17T02:58:12.458Z,99.99
2017-02-17T02:58:27.021Z,99.99
2017-02-17T02:58:41.616Z,99.99
2017-02-17T02:58:56.211Z,99.99
2017-02-17T02:59:10.755Z,99.99
2017-02-17T02:59:25.332Z,99.99
2017-02-17T02:59:39.863Z,99.99
2017-02-17T02:59:54.435Z,99.99
2017-02-17T03:00:09.003Z,99.99
2017-02-17T03:00:23.659Z,99.99
2017-02-17T03:00:38.217Z,99.99
2017-02-17T03:00:52.822Z,99.99
2017-02-17T03:01:07.427Z,99.99
2017-02-17T03:01:21.961Z,99.99
2017-02-17T03:01:36.554Z,99.99
2017-02-17T03:01:51.131Z,99.99
2017-02-17T03:02:05.735Z,99.99
2017-02-17T03:02:20.350Z,99.99
2017-02-17T03:02:34.909Z,99.99
2017-02-17T03:02:49.478Z,99.99
2017-02-17T03:03:04.033Z,99.99
2017-02-17T03:03:18.655Z,99.99
2017-02-17T03:03:33.221Z,99.99
2017-02-17T03:03:47.730Z,99.99
2017-02-17T03:04:02.332Z,99.99
2017-02-17T03:04:16.912Z,99.99
2017-02-17T03:04:31.431Z,99.99
2017-02-17T03:04:47.138Z,99.99
2017-02-17T03:05:01.710Z,99.99
2017-02-17T03:05:16.254Z,99.99
2017-02-17T03:05:30.807Z,99.99
2017-02-17T03:05:45.336Z,99.99
2017-02-17T03:05:59.828Z,99.99
2017-02-17T03:06:14.398Z,99.99
2017-02-17T03:06:28.960Z,99.99
2017-02-17T03:06:43.512Z,99.99
2017-02-17T03:06:58.060Z,99.99
2017-02-17T03:07:12.657Z,99.99
2017-02-17T03:07:27.266Z,99.99
2017-02-17T03:07:41.870Z,99.99
2017-02-17T03:07:56.411Z,99.99
2017-02-17T03:08:10.968Z,99.99